createdAt,value
2023-03-16T00:02:26.919Z,3.00
2023-03-16T00:04:55.679Z,3.00
2023-03-16T00:07:22.403Z,2.90
2023-03-16T00:09:49.075Z,2.90
2023-03-16T00:12:18.980Z,2.90
2023-03-16T00:14:48.828Z,2.90
2023-03-16T00:17:20.467Z,2.90
2023-03-16T00:19:55.751Z,2.90
2023-03-16T00:22:24.452Z,2.80
2023-03-16T00:24:52.654Z,2.80
2023-03-16T00:27:22.623Z,2.90
2023-03-16T00:29:55.514Z,2.70
2023-03-16T00:32:28.239Z,2.70
2023-03-16T00:34:55.147Z,2.70
2023-03-16T00:37:24.000Z,2.70
2023-03-16T00:39:51.685Z,2.70
2023-03-16T00:42:19.903Z,2.70
2023-03-16T00:44:46.942Z,2.60
2023-03-16T00:47:14.482Z,2.60
2023-03-16T00:49:43.386Z,2.60
2023-03-16T00:52:15.412Z,2.60
2023-03-16T00:54:46.980Z,2.50
2023-03-16T00:57:16.514Z,2.50
2023-03-16T00:59:43.158Z,2.50
2023-03-16T01:02:11.653Z,2.50
2023-03-16T01:04:40.112Z,2.50
2023-03-16T01:07:08.631Z,2.40
2023-03-16T01:09:37.070Z,2.40
2023-03-16T01:12:15.687Z,2.40
2023-03-16T01:14:45.834Z,2.40
2023-03-16T01:17:14.778Z,2.30
2023-03-16T01:19:42.152Z,2.30
2023-03-16T01:22:10.326Z,2.30
2023-03-16T01:24:38.127Z,2.30
2023-03-16T01:27:05.575Z,2.20
2023-03-16T01:29:33.222Z,2.30
2023-03-16T01:32:01.622Z,2.30
2023-03-16T01:34:28.649Z,2.30
2023-03-16T01:36:56.193Z,2.30
2023-03-16T01:39:23.292Z,2.30
2023-03-16T01:41:50.651Z,2.20
2023-03-16T01:44:20.265Z,2.20
2023-03-16T01:46:47.023Z,2.20
2023-03-16T01:49:35.640Z,2.20
2023-03-16T01:52:10.011Z,2.20
2023-03-16T01:54:42.724Z,2.20
2023-03-16T01:57:13.614Z,2.10
2023-03-16T02:00:18.537Z,2.10
2023-03-16T02:02:48.823Z,2.10
2023-03-16T02:05:31.134Z,2.10
2023-03-16T02:07:58.571Z,2.00
2023-03-16T02:10:28.010Z,2.00
2023-03-16T02:12:55.746Z,2.00
2023-03-16T02:15:22.874Z,2.00
2023-03-16T02:17:50.758Z,2.10
2023-03-16T02:20:23.230Z,2.00
2023-03-16T02:22:54.680Z,2.10
2023-03-16T02:25:26.226Z,2.00
2023-03-16T02:28:24.125Z,2.00
2023-03-16T02:30:51.365Z,2.00
2023-03-16T02:33:19.680Z,2.00
2023-03-16T02:35:46.350Z,2.00
2023-03-16T02:38:13.291Z,2.00
2023-03-16T02:40:39.995Z,1.90
2023-03-16T02:43:15.308Z,2.10
2023-03-16T02:45:51.189Z,1.90
2023-03-16T02:48:46.652Z,1.90
2023-03-16T02:51:13.462Z,1.90
2023-03-16T02:53:40.348Z,1.90
2023-03-16T02:56:07.654Z,1.90
2023-03-16T02:58:34.426Z,1.90
2023-03-16T03:01:01.745Z,1.80
2023-03-16T03:03:28.528Z,1.80
2023-03-16T03:05:55.859Z,1.80
2023-03-16T03:08:23.854Z,1.80
2023-03-16T03:10:50.637Z,1.80
2023-03-16T03:13:17.567Z,1.80
2023-03-16T03:15:47.091Z,1.80
2023-03-16T03:18:14.606Z,1.80
2023-03-16T03:20:41.720Z,1.80
2023-03-16T03:23:08.585Z,1.80
2023-03-16T03:25:35.293Z,1.70
2023-03-16T03:28:05.644Z,1.70
2023-03-16T03:30:32.552Z,1.70
2023-03-16T03:32:59.286Z,1.70
2023-03-16T03:35:26.007Z,1.70
2023-03-16T03:37:53.024Z,1.70
2023-03-16T03:40:22.825Z,1.70
2023-03-16T03:42:49.650Z,1.70
2023-03-16T03:45:17.582Z,1.70
2023-03-16T03:47:44.604Z,1.70
2023-03-16T03:50:14.033Z,1.70
2023-03-16T03:52:41.298Z,1.70
2023-03-16T03:55:08.750Z,1.70
2023-03-16T03:57:35.810Z,1.70
2023-03-16T04:00:03.716Z,1.70
2023-03-16T04:02:30.594Z,1.70
2023-03-16T04:04:57.457Z,1.70
2023-03-16T04:07:24.272Z,1.70
2023-03-16T04:09:51.947Z,1.70
2023-03-16T04:12:18.596Z,1.70
2023-03-16T04:14:47.455Z,1.70
2023-03-16T04:17:14.490Z,1.60
2023-03-16T04:19:41.158Z,1.60
2023-03-16T04:22:07.973Z,1.60
2023-03-16T04:24:35.207Z,1.60
2023-03-16T04:27:02.783Z,1.50
2023-03-16T04:29:29.439Z,1.50
2023-03-16T04:31:56.027Z,1.50
2023-03-16T04:34:25.232Z,1.50
2023-03-16T04:36:55.013Z,1.50
2023-03-16T04:39:21.671Z,1.50
2023-03-16T04:41:48.801Z,1.50
2023-03-16T04:44:15.986Z,1.50
2023-03-16T04:46:42.876Z,1.50
2023-03-16T04:49:10.113Z,1.50
2023-03-16T04:51:38.311Z,1.50
2023-03-16T04:54:05.162Z,1.50
2023-03-16T04:56:31.842Z,1.40
2023-03-16T04:58:58.504Z,1.40
2023-03-16T05:01:25.184Z,1.40
2023-03-16T05:03:53.023Z,1.40
2023-03-16T05:06:19.751Z,1.50
2023-03-16T05:08:46.392Z,1.40
2023-03-16T05:11:13.054Z,1.40
2023-03-16T05:13:39.641Z,1.40
2023-03-16T05:16:07.420Z,1.40
2023-03-16T05:18:34.190Z,1.40
2023-03-16T05:21:01.048Z,1.40
2023-03-16T05:23:27.670Z,1.40
2023-03-16T05:25:54.292Z,1.40
2023-03-16T05:28:21.274Z,1.40
2023-03-16T05:30:48.166Z,1.40
2023-03-16T05:33:14.953Z,1.40
2023-03-16T05:35:43.478Z,1.40
2023-03-16T05:38:13.490Z,1.50
2023-03-16T05:40:40.192Z,1.50
2023-03-16T05:43:06.822Z,1.50
2023-03-16T05:45:33.669Z,1.50
2023-03-16T05:48:00.492Z,1.60
2023-03-16T05:50:28.681Z,1.60
2023-03-16T05:52:55.604Z,1.60
2023-03-16T05:55:22.401Z,1.60
2023-03-16T05:57:49.230Z,1.60
2023-03-16T06:00:18.086Z,1.60
2023-03-16T06:02:48.596Z,1.60
2023-03-16T06:05:17.294Z,1.60
2023-03-16T06:07:44.401Z,1.60
2023-03-16T06:10:12.184Z,1.70
2023-03-16T06:12:40.062Z,1.70
2023-03-16T06:15:08.079Z,1.70
2023-03-16T06:17:35.720Z,1.70
2023-03-16T06:20:04.058Z,1.80
2023-03-16T06:22:30.724Z,2.30
2023-03-16T06:24:57.659Z,1.80
2023-03-16T06:27:26.426Z,1.80
2023-03-16T06:29:55.482Z,1.90
2023-03-16T06:32:22.109Z,1.90
2023-03-16T06:34:48.813Z,2.00
2023-03-16T06:37:15.719Z,2.00
2023-03-16T06:39:42.410Z,2.00
2023-03-16T06:42:09.083Z,2.00
2023-03-16T06:44:35.806Z,2.00
2023-03-16T06:47:04.400Z,2.00
2023-03-16T06:49:31.339Z,2.10
2023-03-16T06:51:59.002Z,2.10
2023-03-16T06:54:25.698Z,2.20
2023-03-16T06:56:52.529Z,2.20
2023-03-16T06:59:19.241Z,2.20
2023-03-16T07:01:45.930Z,2.30
2023-03-16T07:04:12.916Z,2.30
2023-03-16T07:06:39.761Z,2.70
2023-03-16T07:09:06.450Z,2.40
2023-03-16T07:11:33.089Z,2.40
2023-03-16T07:13:59.976Z,2.40
2023-03-16T07:16:28.686Z,2.40
2023-03-16T07:18:55.697Z,2.50
2023-03-16T07:21:22.337Z,2.60
2023-03-16T07:23:49.589Z,2.60
2023-03-16T07:26:17.349Z,2.60
2023-03-16T07:28:44.111Z,2.70
2023-03-16T07:31:10.889Z,2.60
2023-03-16T07:33:37.697Z,2.70
2023-03-16T07:36:05.924Z,2.70
2023-03-16T07:38:33.614Z,2.80
2023-03-16T07:41:01.138Z,2.80
2023-03-16T07:43:29.302Z,2.80
2023-03-16T07:45:56.071Z,2.90
2023-03-16T07:48:24.763Z,2.90
2023-03-16T07:50:51.392Z,3.00
2023-03-16T07:53:18.396Z,3.10
2023-03-16T07:55:45.043Z,3.10
2023-03-16T07:58:13.287Z,3.20
2023-03-16T08:00:40.664Z,3.30
2023-03-16T08:03:10.471Z,3.30
2023-03-16T08:05:37.152Z,3.50
2023-03-16T08:08:06.111Z,3.60
2023-03-16T08:10:39.385Z,3.70
2023-03-16T08:13:06.148Z,3.80
2023-03-16T08:15:37.464Z,3.90
2023-03-16T08:18:06.096Z,4.00
2023-03-16T08:20:33.136Z,4.30
2023-03-16T08:23:00.023Z,4.20
2023-03-16T08:25:26.839Z,4.30
2023-03-16T08:27:53.471Z,4.40
2023-03-16T08:30:22.522Z,4.50
2023-03-16T08:32:50.660Z,4.50
2023-03-16T08:35:17.624Z,4.50
2023-03-16T08:37:44.335Z,4.60
2023-03-16T08:40:14.302Z,4.70
2023-03-16T08:42:41.654Z,4.70
2023-03-16T08:45:14.361Z,4.90
2023-03-16T08:47:42.621Z,5.00
2023-03-16T08:50:11.989Z,5.10
2023-03-16T08:52:38.933Z,5.20
2023-03-16T08:55:07.245Z,5.30
2023-03-16T08:57:34.267Z,5.40
2023-03-16T09:00:01.651Z,5.50
2023-03-16T09:02:29.330Z,5.60
2023-03-16T09:04:57.458Z,5.60
2023-03-16T09:07:24.143Z,5.70
2023-03-16T09:09:51.188Z,5.70
2023-03-16T09:12:19.169Z,5.80
2023-03-16T09:14:45.844Z,5.90
2023-03-16T09:17:12.819Z,6.10
2023-03-16T09:19:51.153Z,6.20
2023-03-16T09:22:19.795Z,6.30
2023-03-16T09:24:46.965Z,6.40
2023-03-16T09:27:13.756Z,6.50
2023-03-16T09:29:42.078Z,6.60
2023-03-16T09:32:09.549Z,6.70
2023-03-16T09:34:37.939Z,6.70
2023-03-16T09:37:06.142Z,6.90
2023-03-16T09:39:33.210Z,7.00
2023-03-16T09:42:21.672Z,7.00
2023-03-16T09:45:28.388Z,7.10
2023-03-16T09:47:57.801Z,7.20
2023-03-16T09:50:35.276Z,7.30
2023-03-16T09:53:25.412Z,7.30
2023-03-16T09:56:05.805Z,7.40
2023-03-16T09:58:32.984Z,7.40
2023-03-16T10:00:59.671Z,7.50
2023-03-16T10:03:36.990Z,7.60
2023-03-16T10:06:09.417Z,7.70
2023-03-16T10:08:45.841Z,7.70
2023-03-16T10:11:33.007Z,7.80
2023-03-16T10:14:41.569Z,7.90
2023-03-16T10:17:21.352Z,8.00
2023-03-16T10:20:04.970Z,8.00
2023-03-16T10:22:41.929Z,8.10
2023-03-16T10:25:42.753Z,8.10
2023-03-16T10:28:22.192Z,8.30
2023-03-16T10:30:53.286Z,8.40
2023-03-16T10:33:27.253Z,8.40
2023-03-16T10:36:09.508Z,8.40
2023-03-16T10:39:11.733Z,8.40
2023-03-16T10:41:43.753Z,8.60
2023-03-16T10:44:12.067Z,8.70
2023-03-16T10:46:50.069Z,8.80
2023-03-16T10:49:42.288Z,8.80
2023-03-16T10:52:29.362Z,8.90
2023-03-16T10:55:02.156Z,9.00
2023-03-16T10:57:36.248Z,9.10
2023-03-16T11:00:23.165Z,9.10
2023-03-16T11:02:52.120Z,9.10
2023-03-16T11:05:18.717Z,9.20
2023-03-16T11:08:10.978Z,9.20
2023-03-16T11:10:55.465Z,9.30
2023-03-16T11:13:33.738Z,9.40
2023-03-16T11:16:24.042Z,9.50
2023-03-16T11:19:25.186Z,9.50
2023-03-16T11:22:01.410Z,9.60
2023-03-16T11:24:44.509Z,9.60
2023-03-16T11:27:35.441Z,9.60
2023-03-16T11:30:28.402Z,9.70
2023-03-16T11:32:56.035Z,9.80
2023-03-16T11:35:58.089Z,9.70
2023-03-16T11:38:36.242Z,9.70
2023-03-16T11:41:11.381Z,9.70
2023-03-16T11:43:56.824Z,9.70
2023-03-16T11:46:39.932Z,9.70
2023-03-16T11:49:52.000Z,9.90
2023-03-16T11:52:42.794Z,10.20
2023-03-16T11:55:24.852Z,10.50
2023-03-16T11:58:28.389Z,10.50
2023-03-16T12:01:18.647Z,10.50
2023-03-16T12:04:02.518Z,10.70
2023-03-16T12:06:33.642Z,10.80
2023-03-16T12:09:23.357Z,10.90
2023-03-16T12:12:21.103Z,10.90
2023-03-16T12:15:16.619Z,11.00
2023-03-16T12:17:45.219Z,10.90
2023-03-16T12:20:18.463Z,11.00
2023-03-16T12:23:04.458Z,11.00
2023-03-16T12:25:34.843Z,10.90
2023-03-16T12:28:05.453Z,11.00
2023-03-16T12:30:44.946Z,11.00
2023-03-16T12:33:28.302Z,11.00
2023-03-16T12:36:16.832Z,11.00
2023-03-16T12:39:02.103Z,11.10
2023-03-16T12:42:05.301Z,11.10
2023-03-16T12:44:47.752Z,10.90
2023-03-16T12:47:21.531Z,10.90
2023-03-16T12:49:49.104Z,10.80
2023-03-16T12:52:15.837Z,10.80
2023-03-16T12:55:05.365Z,10.90
2023-03-16T12:57:32.881Z,11.10
2023-03-16T13:00:07.327Z,11.10
2023-03-16T13:02:37.052Z,11.10
2023-03-16T13:05:16.412Z,11.20
2023-03-16T13:07:52.369Z,11.20
2023-03-16T13:10:25.211Z,11.30
2023-03-16T13:12:52.014Z,11.40
2023-03-16T13:15:22.406Z,11.40
2023-03-16T13:18:03.822Z,11.40
2023-03-16T13:20:34.377Z,11.30
2023-03-16T13:23:28.032Z,11.30
2023-03-16T13:26:12.688Z,11.20
2023-03-16T13:28:39.806Z,11.00
2023-03-16T13:31:25.636Z,11.00
2023-03-16T13:33:56.833Z,11.10
2023-03-16T13:36:28.471Z,11.10
2023-03-16T13:39:18.781Z,11.10
2023-03-16T13:42:10.199Z,11.10
2023-03-16T13:44:41.645Z,11.00
2023-03-16T13:47:13.081Z,10.90
2023-03-16T13:49:48.612Z,10.90
2023-03-16T13:52:26.131Z,10.90
2023-03-16T13:54:53.878Z,10.90
2023-03-16T13:57:24.206Z,10.80
2023-03-16T13:59:51.144Z,10.80
2023-03-16T14:02:21.672Z,10.80
2023-03-16T14:04:48.673Z,10.80
2023-03-16T14:07:18.046Z,10.70
2023-03-16T14:09:46.848Z,10.60
2023-03-16T14:12:15.333Z,10.50
2023-03-16T14:14:42.494Z,10.60
2023-03-16T14:17:16.015Z,10.50
2023-03-16T14:19:53.494Z,10.60
2023-03-16T14:22:24.866Z,10.50
2023-03-16T14:24:58.980Z,10.60
2023-03-16T14:27:43.940Z,10.50
2023-03-16T14:30:19.243Z,10.20
2023-03-16T14:33:26.598Z,10.20
2023-03-16T14:35:58.570Z,10.10
2023-03-16T14:38:35.237Z,10.10
2023-03-16T14:41:19.936Z,10.20
2023-03-16T14:43:51.409Z,10.30
2023-03-16T14:46:31.408Z,10.20
2023-03-16T14:49:18.094Z,10.30
2023-03-16T14:51:48.041Z,10.20
2023-03-16T14:54:17.853Z,10.30
2023-03-16T14:56:49.778Z,10.30
2023-03-16T14:59:16.864Z,10.70
2023-03-16T15:01:45.169Z,10.30
2023-03-16T15:04:19.604Z,10.20
2023-03-16T15:06:47.267Z,10.30
2023-03-16T15:09:41.103Z,10.20
2023-03-16T15:12:19.823Z,10.10
2023-03-16T15:15:06.441Z,10.00
2023-03-16T15:17:33.590Z,10.00
2023-03-16T15:20:00.222Z,10.00
2023-03-16T15:22:32.423Z,9.90
2023-03-16T15:25:00.458Z,9.90
2023-03-16T15:27:36.399Z,9.90
2023-03-16T15:30:03.589Z,9.90
2023-03-16T15:32:30.335Z,10.00
2023-03-16T15:34:57.742Z,10.00
2023-03-16T15:37:30.121Z,10.00
2023-03-16T15:39:56.812Z,10.00
2023-03-16T15:42:25.874Z,10.00
2023-03-16T15:44:52.903Z,10.00
2023-03-16T15:47:19.731Z,10.00
2023-03-16T15:49:48.134Z,10.00
2023-03-16T15:52:23.884Z,10.00
2023-03-16T15:54:52.253Z,10.00
2023-03-16T15:57:20.378Z,9.90
2023-03-16T15:59:47.544Z,9.80
2023-03-16T16:02:28.763Z,9.80
2023-03-16T16:04:56.364Z,9.80
2023-03-16T16:07:23.120Z,9.80
2023-03-16T16:09:51.919Z,9.90
2023-03-16T16:12:20.369Z,9.80
2023-03-16T16:14:48.740Z,9.80
2023-03-16T16:17:29.526Z,10.50
2023-03-16T16:20:23.640Z,9.70
2023-03-16T16:22:51.984Z,9.70
2023-03-16T16:25:21.318Z,9.70
2023-03-16T16:27:48.562Z,9.60
2023-03-16T16:30:27.714Z,9.60
2023-03-16T16:32:56.314Z,9.50
2023-03-16T16:35:27.853Z,9.50
2023-03-16T16:37:55.488Z,9.50
2023-03-16T16:40:25.927Z,9.50
2023-03-16T16:42:53.822Z,9.50
2023-03-16T16:45:23.159Z,9.50
2023-03-16T16:47:52.495Z,9.40
2023-03-16T16:50:21.531Z,9.50
2023-03-16T16:52:50.257Z,9.40
2023-03-16T16:55:19.553Z,9.40
2023-03-16T16:57:48.027Z,9.40
2023-03-16T17:00:21.919Z,9.40
2023-03-16T17:02:54.125Z,9.40
2023-03-16T17:05:24.867Z,9.30
2023-03-16T17:07:52.306Z,9.30
2023-03-16T17:10:27.364Z,9.20
2023-03-16T17:12:57.100Z,9.30
2023-03-16T17:15:29.257Z,9.30
2023-03-16T17:18:11.609Z,9.20
2023-03-16T17:20:39.123Z,9.10
2023-03-16T17:23:26.349Z,9.20
2023-03-16T17:25:54.406Z,9.10
2023-03-16T17:28:21.568Z,9.10
2023-03-16T17:30:50.759Z,9.00
2023-03-16T17:33:19.271Z,9.00
2023-03-16T17:35:48.166Z,9.00
2023-03-16T17:38:23.809Z,9.00
2023-03-16T17:40:52.437Z,9.00
2023-03-16T17:43:23.513Z,9.00
2023-03-16T17:45:52.412Z,9.00
2023-03-16T17:48:22.335Z,8.90
2023-03-16T17:50:49.866Z,8.80
2023-03-16T17:53:18.721Z,8.80
2023-03-16T17:55:46.812Z,8.70
2023-03-16T17:58:24.205Z,8.80
2023-03-16T18:00:52.754Z,8.80
2023-03-16T18:03:21.663Z,8.80
2023-03-16T18:05:50.769Z,8.80
2023-03-16T18:08:27.523Z,8.60
2023-03-16T18:11:00.961Z,8.60
2023-03-16T18:13:39.706Z,8.70
2023-03-16T18:16:07.750Z,8.60
2023-03-16T18:18:39.544Z,8.60
2023-03-16T18:21:06.229Z,8.60
2023-03-16T18:23:34.813Z,8.50
2023-03-16T18:26:04.262Z,8.50
2023-03-16T18:28:31.647Z,8.50
2023-03-16T18:31:02.567Z,8.50
2023-03-16T18:33:34.221Z,8.50
2023-03-16T18:36:04.866Z,8.50
2023-03-16T18:38:40.274Z,8.50
2023-03-16T18:41:25.659Z,8.60
2023-03-16T18:43:55.157Z,8.50
2023-03-16T18:46:32.957Z,8.50
2023-03-16T18:49:02.259Z,8.40
2023-03-16T18:51:32.479Z,8.40
2023-03-16T18:53:59.696Z,8.40
2023-03-16T18:56:28.501Z,8.40
2023-03-16T18:58:56.502Z,8.30
2023-03-16T19:01:31.649Z,8.30
2023-03-16T19:04:00.481Z,8.30
2023-03-16T19:06:33.869Z,8.30
2023-03-16T19:09:17.841Z,8.30
2023-03-16T19:11:45.372Z,8.30
2023-03-16T19:14:38.083Z,8.20
2023-03-16T19:17:04.853Z,8.20
2023-03-16T19:19:31.549Z,8.20
2023-03-16T19:22:12.712Z,8.20
2023-03-16T19:24:48.579Z,8.20
2023-03-16T19:27:25.763Z,8.20
2023-03-16T19:29:53.904Z,8.20
2023-03-16T19:32:21.966Z,8.20
2023-03-16T19:34:50.344Z,8.20
2023-03-16T19:37:19.853Z,8.30
2023-03-16T19:39:48.223Z,8.10
2023-03-16T19:42:21.694Z,8.10
2023-03-16T19:44:50.055Z,8.20
2023-03-16T19:47:43.314Z,8.10
2023-03-16T19:50:20.658Z,8.10
2023-03-16T19:52:48.643Z,8.10
2023-03-16T19:55:24.896Z,8.00
2023-03-16T19:57:59.795Z,8.00
2023-03-16T20:00:27.023Z,8.00
2023-03-16T20:02:58.740Z,8.10
2023-03-16T20:05:29.717Z,8.00
2023-03-16T20:08:01.029Z,7.90
2023-03-16T20:10:30.352Z,8.10
2023-03-16T20:12:59.373Z,8.00
2023-03-16T20:15:32.583Z,8.10
2023-03-16T20:18:00.149Z,8.00
2023-03-16T20:20:29.518Z,8.10
2023-03-16T20:22:59.576Z,8.10
2023-03-16T20:25:30.804Z,8.00
2023-03-16T20:28:01.600Z,7.90
2023-03-16T20:30:29.860Z,8.00
2023-03-16T20:32:57.160Z,8.00
2023-03-16T20:35:27.339Z,8.00
2023-03-16T20:37:55.226Z,8.00
2023-03-16T20:40:23.000Z,8.00
2023-03-16T20:42:53.082Z,8.00
2023-03-16T20:45:26.121Z,8.00
2023-03-16T20:47:53.671Z,8.00
2023-03-16T20:50:29.244Z,7.90
2023-03-16T20:52:58.682Z,7.90
2023-03-16T20:55:29.450Z,7.80
2023-03-16T20:57:57.733Z,7.90
2023-03-16T21:00:33.356Z,7.90
2023-03-16T21:03:01.989Z,8.20
2023-03-16T21:05:29.882Z,7.90
2023-03-16T21:07:56.720Z,7.80
2023-03-16T21:10:25.394Z,7.80
2023-03-16T21:12:55.178Z,7.80
2023-03-16T21:15:23.750Z,7.70
2023-03-16T21:18:00.437Z,7.70
2023-03-16T21:20:30.177Z,7.70
2023-03-16T21:22:57.672Z,7.70
2023-03-16T21:25:29.293Z,7.70
2023-03-16T21:27:59.879Z,7.70
2023-03-16T21:30:30.624Z,7.60
2023-03-16T21:33:00.008Z,7.60
2023-03-16T21:35:33.379Z,7.60
2023-03-16T21:38:01.636Z,7.70
2023-03-16T21:40:29.132Z,7.70
2023-03-16T21:42:58.389Z,7.60
2023-03-16T21:45:25.737Z,7.60
2023-03-16T21:47:52.900Z,7.60
2023-03-16T21:50:26.232Z,7.60
2023-03-16T21:52:53.074Z,7.60
2023-03-16T21:55:29.376Z,7.60
2023-03-16T21:58:00.090Z,7.50
2023-03-16T22:00:29.997Z,7.60
2023-03-16T22:02:59.067Z,7.60
2023-03-16T22:05:32.674Z,7.50
2023-03-16T22:08:01.794Z,7.50
2023-03-16T22:10:29.741Z,7.50
2023-03-16T22:12:58.082Z,7.50
2023-03-16T22:15:25.782Z,7.50
2023-03-16T22:17:53.999Z,7.50
2023-03-16T22:20:27.181Z,7.50
2023-03-16T22:22:55.974Z,7.50
2023-03-16T22:25:25.740Z,7.50
2023-03-16T22:27:53.033Z,7.50
2023-03-16T22:30:27.732Z,7.50
2023-03-16T22:33:00.470Z,7.50
2023-03-16T22:35:31.846Z,7.40
2023-03-16T22:38:00.444Z,7.40
2023-03-16T22:40:31.305Z,7.40
2023-03-16T22:43:03.165Z,7.40
2023-03-16T22:45:32.060Z,7.40
2023-03-16T22:48:02.359Z,7.30
2023-03-16T22:50:33.912Z,7.30
2023-03-16T22:53:05.212Z,7.40
2023-03-16T22:55:36.585Z,7.40
2023-03-16T22:58:37.175Z,7.40
2023-03-16T23:01:34.147Z,7.30
2023-03-16T23:04:01.554Z,7.30
2023-03-16T23:06:31.375Z,7.40
2023-03-16T23:08:58.305Z,7.30
2023-03-16T23:11:34.053Z,7.30
2023-03-16T23:14:01.493Z,7.30
2023-03-16T23:16:35.970Z,7.30
2023-03-16T23:19:09.829Z,7.30
2023-03-16T23:21:42.131Z,7.20
2023-03-16T23:24:08.844Z,7.20
2023-03-16T23:26:35.604Z,7.30
2023-03-16T23:29:02.190Z,7.30
2023-03-16T23:31:29.806Z,7.30
2023-03-16T23:33:56.589Z,7.30
2023-03-16T23:36:24.850Z,7.30
2023-03-16T23:38:51.932Z,7.30
2023-03-16T23:41:22.666Z,7.20
2023-03-16T23:43:50.896Z,7.10
2023-03-16T23:46:20.446Z,7.10
2023-03-16T23:48:49.969Z,7.20
2023-03-16T23:51:34.702Z,7.20
2023-03-16T23:54:02.040Z,7.20
2023-03-16T23:56:28.797Z,7.20
2023-03-16T23:58:55.789Z,7.10
